sensor_id;sensor_type;location;lat;lon;timestamp;pressure;altitude;pressure_sealevel;temperature;humidity
60319;BME280;46163;52.306;5.634;2023-03-13T00:01:19;99999.28;;;16.91;51.86
60319;BME280;46163;52.306;5.634;2023-03-13T00:03:44;99981.00;;;16.88;51.79
60319;BME280;46163;52.306;5.634;2023-03-13T00:06:12;99982.59;;;16.89;51.75
60319;BME280;46163;52.306;5.634;2023-03-13T00:08:38;99968.09;;;16.85;51.91
60319;BME280;46163;52.306;5.634;2023-03-13T00:11:05;99964.34;;;16.86;51.78
60319;BME280;46163;52.306;5.634;2023-03-13T00:13:31;99954.66;;;16.85;51.77
60319;BME280;46163;52.306;5.634;2023-03-13T00:16:15;99951.41;;;16.83;51.92
60319;BME280;46163;52.306;5.634;2023-03-13T00:18:45;99947.09;;;16.82;51.62
60319;BME280;46163;52.306;5.634;2023-03-13T00:21:14;99935.00;;;16.80;51.53
60319;BME280;46163;52.306;5.634;2023-03-13T00:23:40;99914.56;;;16.74;51.60
60319;BME280;46163;52.306;5.634;2023-03-13T00:26:12;99928.53;;;16.76;51.53
60319;BME280;46163;52.306;5.634;2023-03-13T00:28:38;99921.53;;;16.75;51.36
60319;BME280;46163;52.306;5.634;2023-03-13T00:31:18;99919.13;;;16.73;51.54
60319;BME280;46163;52.306;5.634;2023-03-13T00:33:47;99905.97;;;16.72;51.40
60319;BME280;46163;52.306;5.634;2023-03-13T00:36:13;99921.28;;;16.71;51.23
60319;BME280;46163;52.306;5.634;2023-03-13T00:38:40;99891.66;;;16.66;51.40
60319;BME280;46163;52.306;5.634;2023-03-13T00:41:10;99885.47;;;16.65;51.36
60319;BME280;46163;52.306;5.634;2023-03-13T00:43:40;99886.03;;;16.67;51.40
60319;BME280;46163;52.306;5.634;2023-03-13T00:46:07;99875.53;;;16.66;51.18
60319;BME280;46163;52.306;5.634;2023-03-13T00:48:32;99870.44;;;16.64;51.25
60319;BME280;46163;52.306;5.634;2023-03-13T00:50:59;99863.44;;;16.63;51.20
60319;BME280;46163;52.306;5.634;2023-03-13T00:53:25;99851.91;;;16.63;51.21
60319;BME280;46163;52.306;5.634;2023-03-13T00:55:56;99844.13;;;16.61;51.27
60319;BME280;46163;52.306;5.634;2023-03-13T00:58:23;99835.53;;;16.59;51.20
60319;BME280;46163;52.306;5.634;2023-03-13T01:00:49;99822.31;;;16.58;50.98
60319;BME280;46163;52.306;5.634;2023-03-13T01:03:14;99827.16;;;16.56;51.14
60319;BME280;46163;52.306;5.634;2023-03-13T01:05:40;99816.41;;;16.56;51.44
60319;BME280;46163;52.306;5.634;2023-03-13T01:08:05;99807.81;;;16.54;51.08
60319;BME280;46163;52.306;5.634;2023-03-13T01:10:31;99795.47;;;16.53;51.16
60319;BME280;46163;52.306;5.634;2023-03-13T01:12:56;99792.78;;;16.53;50.98
60319;BME280;46163;52.306;5.634;2023-03-13T01:15:22;99794.94;;;16.51;50.96
60319;BME280;46163;52.306;5.634;2023-03-13T01:17:48;99788.72;;;16.50;51.19
60319;BME280;46163;52.306;5.634;2023-03-13T01:20:14;99777.19;;;16.50;50.97
60319;BME280;46163;52.306;5.634;2023-03-13T01:22:39;99782.03;;;16.48;51.12
60319;BME280;46163;52.306;5.634;2023-03-13T01:25:05;99761.84;;;16.40;50.99
60319;BME280;46163;52.306;5.634;2023-03-13T01:27:31;99766.19;;;16.46;51.10
60319;BME280;46163;52.306;5.634;2023-03-13T01:29:57;99757.31;;;16.46;50.92
60319;BME280;46163;52.306;5.634;2023-03-13T01:32:22;99752.22;;;16.44;51.11
60319;BME280;46163;52.306;5.634;2023-03-13T01:34:48;99741.44;;;16.39;51.11
60319;BME280;46163;52.306;5.634;2023-03-13T01:37:13;99724.81;;;16.37;50.95
60319;BME280;46163;52.306;5.634;2023-03-13T01:39:39;99737.41;;;16.42;51.00
60319;BME280;46163;52.306;5.634;2023-03-13T01:42:05;99718.63;;;16.42;51.10
60319;BME280;46163;52.306;5.634;2023-03-13T01:44:52;99705.75;;;16.38;50.85
60319;BME280;46163;52.306;5.634;2023-03-13T01:47:18;99693.13;;;16.39;50.97
60319;BME280;46163;52.306;5.634;2023-03-13T01:49:44;99702.25;;;16.38;51.01
60319;BME280;46163;52.306;5.634;2023-03-13T01:52:23;99679.16;;;16.37;50.95
60319;BME280;46163;52.306;5.634;2023-03-13T01:55:00;99678.34;;;16.36;51.04
60319;BME280;46163;52.306;5.634;2023-03-13T01:57:37;99677.25;;;16.32;51.01
60319;BME280;46163;52.306;5.634;2023-03-13T02:00:09;99675.13;;;16.34;50.85
60319;BME280;46163;52.306;5.634;2023-03-13T02:02:37;99660.91;;;16.34;50.87
60319;BME280;46163;52.306;5.634;2023-03-13T02:05:05;99646.91;;;16.32;50.98
60319;BME280;46163;52.306;5.634;2023-03-13T02:07:46;99636.97;;;16.32;50.98
60319;BME280;46163;52.306;5.634;2023-03-13T02:10:13;99638.06;;;16.31;50.92
60319;BME280;46163;52.306;5.634;2023-03-13T02:12:40;99640.22;;;16.29;50.87
60319;BME280;46163;52.306;5.634;2023-03-13T02:15:10;99636.44;;;16.30;50.87
60319;BME280;46163;52.306;5.634;2023-03-13T02:17:38;99618.75;;;16.29;50.88
60319;BME280;46163;52.306;5.634;2023-03-13T02:20:05;99601.03;;;16.28;50.87
60319;BME280;46163;52.306;5.634;2023-03-13T02:27:51;99599.69;;;16.26;50.86
60319;BME280;46163;52.306;5.634;2023-03-13T02:30:19;99587.34;;;16.25;50.95
60319;BME280;46163;52.306;5.634;2023-03-13T02:32:45;99577.66;;;16.24;50.81
60319;BME280;46163;52.306;5.634;2023-03-13T02:35:13;99569.59;;;16.24;50.71
60319;BME280;46163;52.306;5.634;2023-03-13T02:37:46;99578.72;;;16.23;50.75
60319;BME280;46163;52.306;5.634;2023-03-13T02:40:17;99574.16;;;16.23;50.96
60319;BME280;46163;52.306;5.634;2023-03-13T02:42:45;99569.06;;;16.22;51.04
60319;BME280;46163;52.306;5.634;2023-03-13T02:45:13;99546.78;;;16.21;50.98
60319;BME280;46163;52.306;5.634;2023-03-13T02:47:39;99549.75;;;16.20;51.02
60319;BME280;46163;52.306;5.634;2023-03-13T02:50:05;99543.56;;;16.19;50.80
60319;BME280;46163;52.306;5.634;2023-03-13T02:52:37;99548.94;;;16.19;50.80
60319;BME280;46163;52.306;5.634;2023-03-13T02:55:14;99548.94;;;16.19;50.76
60319;BME280;46163;52.306;5.634;2023-03-13T02:57:46;99539.28;;;16.18;50.81
60319;BME280;46163;52.306;5.634;2023-03-13T03:00:13;99539.28;;;16.18;50.78
60319;BME280;46163;52.306;5.634;2023-03-13T03:02:41;99535.78;;;16.18;50.70
60319;BME280;46163;52.306;5.634;2023-03-13T03:05:06;99528.81;;;16.17;50.73
60319;BME280;46163;52.306;5.634;2023-03-13T03:07:32;99520.78;;;16.17;50.74
60319;BME280;46163;52.306;5.634;2023-03-13T03:09:57;99525.59;;;16.15;50.78
60319;BME280;46163;52.306;5.634;2023-03-13T03:12:23;99528.25;;;16.15;50.95
60319;BME280;46163;52.306;5.634;2023-03-13T03:14:51;99526.13;;;16.11;50.72
60319;BME280;46163;52.306;5.634;2023-03-13T03:17:16;99524.78;;;16.14;50.78
60319;BME280;46163;52.306;5.634;2023-03-13T03:19:42;99530.94;;;16.15;50.82
60319;BME280;46163;52.306;5.634;2023-03-13T03:22:07;99533.63;;;16.15;50.95
60319;BME280;46163;52.306;5.634;2023-03-13T03:24:33;99533.09;;;16.13;50.76
60319;BME280;46163;52.306;5.634;2023-03-13T03:26:58;99523.16;;;16.13;50.91
60319;BME280;46163;52.306;5.634;2023-03-13T03:29:23;99523.44;;;16.11;50.84
60319;BME280;46163;52.306;5.634;2023-03-13T03:31:49;99531.50;;;16.11;51.13
60319;BME280;46163;52.306;5.634;2023-03-13T03:34:14;99541.44;;;16.11;50.89
60319;BME280;46163;52.306;5.634;2023-03-13T03:36:40;99518.88;;;16.12;50.85
60319;BME280;46163;52.306;5.634;2023-03-13T03:39:06;99519.97;;;16.11;50.77
60319;BME280;46163;52.306;5.634;2023-03-13T03:41:32;99512.97;;;16.10;50.90
60319;BME280;46163;52.306;5.634;2023-03-13T03:43:57;99484.28;;;16.00;50.65
60319;BME280;46163;52.306;5.634;2023-03-13T03:46:23;99510.28;;;16.10;50.87
60319;BME280;46163;52.306;5.634;2023-03-13T03:48:49;99506.00;;;16.09;50.73
60319;BME280;46163;52.306;5.634;2023-03-13T03:51:14;99508.69;;;16.09;50.83
60319;BME280;46163;52.306;5.634;2023-03-13T03:53:40;99516.75;;;16.09;50.72
60319;BME280;46163;52.306;5.634;2023-03-13T03:56:06;99516.75;;;16.09;50.96
60319;BME280;46163;52.306;5.634;2023-03-13T03:58:31;99509.78;;;16.08;50.70
60319;BME280;46163;52.306;5.634;2023-03-13T04:00:58;99501.72;;;16.08;50.74
60319;BME280;46163;52.306;5.634;2023-03-13T04:03:24;99493.66;;;16.08;51.06
60319;BME280;46163;52.306;5.634;2023-03-13T04:05:52;99482.94;;;16.08;50.88
60319;BME280;46163;52.306;5.634;2023-03-13T04:08:17;99486.66;;;16.07;50.81
60319;BME280;46163;52.306;5.634;2023-03-13T04:10:43;99455.28;;;15.92;50.58
60319;BME280;46163;52.306;5.634;2023-03-13T04:13:08;99485.84;;;16.06;50.70
60319;BME280;46163;52.306;5.634;2023-03-13T04:15:34;99483.97;;;16.07;50.77
60319;BME280;46163;52.306;5.634;2023-03-13T04:18:00;99478.88;;;16.05;50.79
60319;BME280;46163;52.306;5.634;2023-03-13T04:20:26;99468.94;;;16.06;50.65
60319;BME280;46163;52.306;5.634;2023-03-13T04:22:53;99467.06;;;16.06;50.61
60319;BME280;46163;52.306;5.634;2023-03-13T04:25:18;99452.84;;;16.06;50.76
60319;BME280;46163;52.306;5.634;2023-03-13T04:27:44;99465.75;;;16.04;50.87
60319;BME280;46163;52.306;5.634;2023-03-13T04:30:10;99460.91;;;16.06;50.55
60319;BME280;46163;52.306;5.634;2023-03-13T04:32:35;99452.06;;;16.05;50.63
60319;BME280;46163;52.306;5.634;2023-03-13T04:35:01;99461.97;;;16.05;50.52
60319;BME280;46163;52.306;5.634;2023-03-13T04:37:26;99445.88;;;16.05;50.52
60319;BME280;46163;52.306;5.634;2023-03-13T04:39:52;99438.91;;;15.94;50.93
60319;BME280;46163;52.306;5.634;2023-03-13T04:42:17;99450.97;;;16.06;50.91
60319;BME280;46163;52.306;5.634;2023-03-13T04:44:43;99445.59;;;16.06;50.63
60319;BME280;46163;52.306;5.634;2023-03-13T04:47:08;99428.19;;;16.09;50.77
60319;BME280;46163;52.306;5.634;2023-03-13T04:49:34;99439.16;;;16.13;50.55
60319;BME280;46163;52.306;5.634;2023-03-13T04:52:00;99434.09;;;16.16;50.45
60319;BME280;46163;52.306;5.634;2023-03-13T04:54:26;99430.56;;;16.21;50.44
60319;BME280;46163;52.306;5.634;2023-03-13T04:56:51;99428.13;;;16.24;50.53
60319;BME280;46163;52.306;5.634;2023-03-13T04:59:17;99427.84;;;16.36;50.42
60319;BME280;46163;52.306;5.634;2023-03-13T05:01:42;99430.25;;;16.43;50.29
60319;BME280;46163;52.306;5.634;2023-03-13T05:04:09;99428.63;;;16.52;50.06
60319;BME280;46163;52.306;5.634;2023-03-13T05:06:35;99424.28;;;16.61;49.98
60319;BME280;46163;52.306;5.634;2023-03-13T05:09:01;99422.13;;;16.68;49.80
60319;BME280;46163;52.306;5.634;2023-03-13T05:11:26;99414.56;;;16.75;49.51
60319;BME280;46163;52.306;5.634;2023-03-13T05:13:52;99408.34;;;16.85;49.30
60319;BME280;46163;52.306;5.634;2023-03-13T05:16:18;99409.13;;;16.90;49.37
60319;BME280;46163;52.306;5.634;2023-03-13T05:18:43;99413.94;;;16.99;49.08
60319;BME280;46163;52.306;5.634;2023-03-13T05:21:10;99412.53;;;17.06;49.06
60319;BME280;46163;52.306;5.634;2023-03-13T05:23:36;99421.91;;;17.14;48.78
60319;BME280;46163;52.306;5.634;2023-03-13T05:26:01;99412.72;;;17.20;48.70
60319;BME280;46163;52.306;5.634;2023-03-13T05:28:27;99405.16;;;17.27;48.65
60319;BME280;46163;52.306;5.634;2023-03-13T05:30:52;99408.91;;;17.31;48.40
60319;BME280;46163;52.306;5.634;2023-03-13T05:33:18;99397.84;;;17.38;48.29
60319;BME280;46163;52.306;5.634;2023-03-13T05:35:44;99396.19;;;17.42;48.11
60319;BME280;46163;52.306;5.634;2023-03-13T05:38:10;99419.28;;;17.43;48.07
60319;BME280;46163;52.306;5.634;2023-03-13T05:40:36;99410.13;;;17.49;47.84
60319;BME280;46163;52.306;5.634;2023-03-13T05:43:02;99397.97;;;17.51;47.99
60319;BME280;46163;52.306;5.634;2023-03-13T05:45:28;99404.16;;;17.52;47.79
60319;BME280;46163;52.306;5.634;2023-03-13T05:47:53;99399.84;;;17.56;47.77
60319;BME280;46163;52.306;5.634;2023-03-13T05:50:19;99379.94;;;17.57;48.00
60319;BME280;46163;52.306;5.634;2023-03-13T05:52:44;99400.88;;;17.60;47.96
60319;BME280;46163;52.306;5.634;2023-03-13T05:55:10;99393.59;;;17.61;47.75
60319;BME280;46163;52.306;5.634;2023-03-13T05:57:36;99400.03;;;17.65;47.75
60319;BME280;46163;52.306;5.634;2023-03-13T06:00:02;99393.56;;;17.66;47.97
60319;BME280;46163;52.306;5.634;2023-03-13T06:02:28;99393.00;;;17.69;47.85
60319;BME280;46163;52.306;5.634;2023-03-13T06:04:54;99380.09;;;17.71;47.55
60319;BME280;46163;52.306;5.634;2023-03-13T06:07:19;99391.41;;;17.73;47.54
60319;BME280;46163;52.306;5.634;2023-03-13T06:09:45;99375.75;;;17.75;47.45
60319;BME280;46163;52.306;5.634;2023-03-13T06:12:10;99372.50;;;17.78;47.56
60319;BME280;46163;52.306;5.634;2023-03-13T06:14:36;99372.22;;;17.79;47.24
60319;BME280;46163;52.306;5.634;2023-03-13T06:17:05;99362.50;;;17.84;47.33
60319;BME280;46163;52.306;5.634;2023-03-13T06:19:30;99378.88;;;17.87;47.28
60319;BME280;46163;52.306;5.634;2023-03-13T06:21:56;99354.13;;;17.85;47.15
60319;BME280;46163;52.306;5.634;2023-03-13T06:24:22;99365.66;;;17.91;47.41
60319;BME280;46163;52.306;5.634;2023-03-13T06:26:48;99372.34;;;17.93;47.28
60319;BME280;46163;52.306;5.634;2023-03-13T06:29:14;99358.91;;;17.93;47.24
60319;BME280;46163;52.306;5.634;2023-03-13T06:31:40;99367.44;;;18.00;47.06
60319;BME280;46163;52.306;5.634;2023-03-13T06:34:05;99377.91;;;18.02;47.02
60319;BME280;46163;52.306;5.634;2023-03-13T06:36:31;99358.78;;;18.03;47.09
60319;BME280;46163;52.306;5.634;2023-03-13T06:38:56;99365.47;;;18.06;47.19
60319;BME280;46163;52.306;5.634;2023-03-13T06:41:21;99364.13;;;18.08;47.16
60319;BME280;46163;52.306;5.634;2023-03-13T06:43:47;99358.16;;;18.12;47.15
60319;BME280;46163;52.306;5.634;2023-03-13T06:46:18;99365.94;;;18.13;47.24
60319;BME280;46163;52.306;5.634;2023-03-13T06:48:47;99388.28;;;18.14;47.21
60319;BME280;46163;52.306;5.634;2023-03-13T06:51:14;99363.34;;;18.08;47.39
60319;BME280;46163;52.306;5.634;2023-03-13T06:53:40;99363.50;;;18.17;47.42
60319;BME280;46163;52.306;5.634;2023-03-13T06:56:06;99361.91;;;18.16;47.40
60319;BME280;46163;52.306;5.634;2023-03-13T06:58:31;99357.03;;;18.18;47.22
60319;BME280;46163;52.306;5.634;2023-03-13T07:00:58;99366.41;;;18.20;47.47
60319;BME280;46163;52.306;5.634;2023-03-13T07:03:24;99359.13;;;18.21;47.76
60319;BME280;46163;52.306;5.634;2023-03-13T07:05:55;99368.81;;;18.22;47.79
60319;BME280;46163;52.306;5.634;2023-03-13T07:08:21;99374.19;;;18.22;47.66
60319;BME280;46163;52.306;5.634;2023-03-13T07:10:46;99363.94;;;18.24;47.99
60319;BME280;46163;52.306;5.634;2023-03-13T07:13:15;99352.91;;;18.25;47.59
60319;BME280;46163;52.306;5.634;2023-03-13T07:15:40;99367.47;;;18.24;47.70
60319;BME280;46163;52.306;5.634;2023-03-13T07:18:06;99358.56;;;18.24;47.73
60319;BME280;46163;52.306;5.634;2023-03-13T07:20:31;99364.22;;;18.22;47.84
60319;BME280;46163;52.306;5.634;2023-03-13T07:22:57;99378.00;;;18.21;47.75
60319;BME280;46163;52.306;5.634;2023-03-13T07:25:23;99365.63;;;18.20;47.74
60319;BME280;46163;52.306;5.634;2023-03-13T07:27:50;99366.19;;;18.17;47.80
60319;BME280;46163;52.306;5.634;2023-03-13T07:30:22;99366.72;;;18.19;47.87
60319;BME280;46163;52.306;5.634;2023-03-13T07:32:53;99376.97;;;18.17;48.10
60319;BME280;46163;52.306;5.634;2023-03-13T07:35:19;99377.53;;;18.14;48.03
60319;BME280;46163;52.306;5.634;2023-03-13T07:37:44;99379.69;;;18.12;48.24
60319;BME280;46163;52.306;5.634;2023-03-13T07:40:10;99361.94;;;18.11;48.31
60319;BME280;46163;52.306;5.634;2023-03-13T07:42:40;99376.00;;;18.07;48.35
60319;BME280;46163;52.306;5.634;2023-03-13T07:45:06;99381.72;;;18.01;48.72
60319;BME280;46163;52.306;5.634;2023-03-13T07:47:33;99385.19;;;18.01;48.59
60319;BME280;46163;52.306;5.634;2023-03-13T07:49:59;99394.38;;;18.00;49.04
60319;BME280;46163;52.306;5.634;2023-03-13T07:52:24;99397.06;;;18.00;48.83
60319;BME280;46163;52.306;5.634;2023-03-13T07:54:52;99370.75;;;17.92;48.67
60319;BME280;46163;52.306;5.634;2023-03-13T07:57:18;99384.44;;;17.96;49.22
60319;BME280;46163;52.306;5.634;2023-03-13T07:59:44;99386.31;;;17.95;49.57
60319;BME280;46163;52.306;5.634;2023-03-13T08:02:11;99391.19;;;17.93;49.37
60319;BME280;46163;52.306;5.634;2023-03-13T08:04:38;99392.28;;;17.92;49.49
60319;BME280;46163;52.306;5.634;2023-03-13T08:07:10;99397.66;;;17.92;49.60
60319;BME280;46163;52.306;5.634;2023-03-13T08:09:36;99395.50;;;17.94;49.23
60319;BME280;46163;52.306;5.634;2023-03-13T08:12:02;99414.34;;;17.94;49.63
60319;BME280;46163;52.306;5.634;2023-03-13T08:14:27;99418.34;;;17.97;49.79
60319;BME280;46163;52.306;5.634;2023-03-13T08:16:53;99405.69;;;17.97;49.55
60319;BME280;46163;52.306;5.634;2023-03-13T08:19:18;99390.34;;;17.98;49.67
60319;BME280;46163;52.306;5.634;2023-03-13T08:21:44;99378.22;;;18.00;49.77
60319;BME280;46163;52.306;5.634;2023-03-13T08:24:10;99374.44;;;18.01;49.58
60319;BME280;46163;52.306;5.634;2023-03-13T08:26:39;99364.97;;;18.04;49.53
60319;BME280;46163;52.306;5.634;2023-03-13T08:29:10;99350.97;;;18.07;49.38
60319;BME280;46163;52.306;5.634;2023-03-13T08:31:46;99342.31;;;18.10;49.62
60319;BME280;46163;52.306;5.634;2023-03-13T08:34:14;99352.78;;;18.12;49.27
60319;BME280;46163;52.306;5.634;2023-03-13T08:36:40;99355.97;;;18.14;49.25
60319;BME280;46163;52.306;5.634;2023-03-13T08:39:12;99351.41;;;18.14;49.00
60319;BME280;46163;52.306;5.634;2023-03-13T08:41:38;99347.06;;;18.18;48.94
60319;BME280;46163;52.306;5.634;2023-03-13T08:44:10;99329.22;;;18.22;48.78
60319;BME280;46163;52.306;5.634;2023-03-13T08:46:36;99344.28;;;18.23;48.74
60319;BME280;46163;52.306;5.634;2023-03-13T08:49:03;99327.28;;;18.28;48.81
60319;BME280;46163;52.306;5.634;2023-03-13T08:51:29;99342.34;;;18.29;48.67
60319;BME280;46163;52.306;5.634;2023-03-13T08:53:55;99339.06;;;18.32;48.77
60319;BME280;46163;52.306;5.634;2023-03-13T08:56:24;99337.47;;;18.31;48.55
60319;BME280;46163;52.306;5.634;2023-03-13T08:58:52;99325.59;;;18.32;48.92
60319;BME280;46163;52.306;5.634;2023-03-13T09:01:19;99328.31;;;18.32;48.62
60319;BME280;46163;52.306;5.634;2023-03-13T09:03:45;99339.66;;;18.29;48.42
60319;BME280;46163;52.306;5.634;2023-03-13T09:06:11;99326.41;;;18.32;48.72
60319;BME280;46163;52.306;5.634;2023-03-13T09:08:40;99335.28;;;18.33;48.59
60319;BME280;46163;52.306;5.634;2023-03-13T09:11:11;99340.66;;;18.33;48.57
60319;BME280;46163;52.306;5.634;2023-03-13T09:13:39;99335.28;;;18.33;48.55
60319;BME280;46163;52.306;5.634;2023-03-13T09:16:08;99326.41;;;18.32;48.39
60319;BME280;46163;52.306;5.634;2023-03-13T09:18:35;99345.56;;;18.31;48.55
60319;BME280;46163;52.306;5.634;2023-03-13T09:21:02;99344.75;;;18.30;48.66
60319;BME280;46163;52.306;5.634;2023-03-13T09:23:28;99332.38;;;18.29;48.64
60319;BME280;46163;52.306;5.634;2023-03-13T09:25:56;99342.34;;;18.29;48.52
60319;BME280;46163;52.306;5.634;2023-03-13T09:28:23;99341.25;;;18.30;48.63
60319;BME280;46163;52.306;5.634;2023-03-13T09:30:49;99323.22;;;18.30;48.61
60319;BME280;46163;52.306;5.634;2023-03-13T09:33:16;99305.75;;;18.28;48.57
60319;BME280;46163;52.306;5.634;2023-03-13T09:35:42;99288.19;;;18.30;48.63
60319;BME280;46163;52.306;5.634;2023-03-13T09:38:11;99293.28;;;18.32;48.40
60319;BME280;46163;52.306;5.634;2023-03-13T09:40:40;99276.88;;;18.33;48.39
60319;BME280;46163;52.306;5.634;2023-03-13T09:46:10;99298.13;;;18.35;48.15
60319;BME280;46163;52.306;5.634;2023-03-13T09:48:43;99265.00;;;18.34;48.35
60319;BME280;46163;52.306;5.634;2023-03-13T09:51:17;99268.19;;;18.36;48.47
60319;BME280;46163;52.306;5.634;2023-03-13T09:54:01;99264.41;;;18.38;48.27
60319;BME280;46163;52.306;5.634;2023-03-13T09:56:38;99265.72;;;18.40;48.27
60319;BME280;46163;52.306;5.634;2023-03-13T09:59:13;99263.56;;;18.42;48.22
60319;BME280;46163;52.306;5.634;2023-03-13T10:01:41;99264.84;;;18.45;47.98
60319;BME280;46163;52.306;5.634;2023-03-13T10:04:41;99260.47;;;18.49;47.96
60319;BME280;46163;52.306;5.634;2023-03-13T10:07:09;99249.41;;;18.50;48.07
60319;BME280;46163;52.306;5.634;2023-03-13T10:09:36;99241.25;;;18.55;47.98
60319;BME280;46163;52.306;5.634;2023-03-13T10:12:20;99240.16;;;18.56;47.92
60319;BME280;46163;52.306;5.634;2023-03-13T10:17:31;99245.00;;;18.59;47.88
60319;BME280;46163;52.306;5.634;2023-03-13T10:20:28;99228.22;;;18.62;47.77
60319;BME280;46163;52.306;5.634;2023-03-13T10:23:02;99208.88;;;18.60;47.63
60319;BME280;46163;52.306;5.634;2023-03-13T10:25:34;99205.53;;;18.69;47.55
60319;BME280;46163;52.306;5.634;2023-03-13T10:28:00;99209.84;;;18.70;47.76
60319;BME280;46163;52.306;5.634;2023-03-13T10:30:30;99204.94;;;18.72;47.69
60319;BME280;46163;52.306;5.634;2023-03-13T10:35:41;99203.78;;;18.78;47.52
60319;BME280;46163;52.306;5.634;2023-03-13T10:38:12;99176.84;;;18.78;47.56
60319;BME280;46163;52.306;5.634;2023-03-13T10:40:38;99181.44;;;18.77;47.60
60319;BME280;46163;52.306;5.634;2023-03-13T10:43:25;99206.75;;;18.76;47.50
60319;BME280;46163;52.306;5.634;2023-03-13T10:45:51;99188.41;;;18.78;47.66
60319;BME280;46163;52.306;5.634;2023-03-13T10:48:25;99167.22;;;18.72;47.86
60319;BME280;46163;52.306;5.634;2023-03-13T10:50:55;99209.16;;;18.78;47.84
60319;BME280;46163;52.306;5.634;2023-03-13T10:53:25;99216.97;;;18.79;47.83
60319;BME280;46163;52.306;5.634;2023-03-13T10:56:09;99196.69;;;18.82;47.87
60319;BME280;46163;52.306;5.634;2023-03-13T10:58:44;99200.19;;;18.82;47.81
60319;BME280;46163;52.306;5.634;2023-03-13T11:01:26;99211.78;;;18.83;47.98
60319;BME280;46163;52.306;5.634;2023-03-13T11:04:18;99216.84;;;18.84;47.97
60319;BME280;46163;52.306;5.634;2023-03-13T11:06:49;99204.41;;;18.88;47.68
60319;BME280;46163;52.306;5.634;2023-03-13T11:09:16;99208.41;;;18.91;47.62
60319;BME280;46163;52.306;5.634;2023-03-13T11:11:52;99208.63;;;18.95;47.64
60319;BME280;46163;52.306;5.634;2023-03-13T11:14:21;99220.78;;;18.92;47.67
60319;BME280;46163;52.306;5.634;2023-03-13T11:16:54;99201.84;;;18.97;47.74
60319;BME280;46163;52.306;5.634;2023-03-13T11:19:34;99206.13;;;18.98;47.88
60319;BME280;46163;52.306;5.634;2023-03-13T11:25:08;99179.97;;;18.99;47.99
60319;BME280;46163;52.306;5.634;2023-03-13T11:33:43;99178.88;;;19.00;48.31
60319;BME280;46163;52.306;5.634;2023-03-13T11:36:22;99181.56;;;19.00;48.09
60319;BME280;46163;52.306;5.634;2023-03-13T11:39:19;99192.34;;;19.00;48.55
60319;BME280;46163;52.306;5.634;2023-03-13T11:50:41;99177.88;;;18.96;49.11
60319;BME280;46163;52.306;5.634;2023-03-13T11:56:43;99155.28;;;18.91;49.25
60319;BME280;46163;52.306;5.634;2023-03-13T11:59:34;99163.69;;;18.90;49.23
60319;BME280;46163;52.306;5.634;2023-03-13T12:05:13;99157.38;;;18.81;49.59
60319;BME280;46163;52.306;5.634;2023-03-13T12:10:40;99148.47;;;18.80;49.36
60319;BME280;46163;52.306;5.634;2023-03-13T12:13:16;99141.13;;;18.86;49.21
60319;BME280;46163;52.306;5.634;2023-03-13T12:15:47;99125.53;;;18.83;49.20
60319;BME280;46163;52.306;5.634;2023-03-13T12:18:30;99118.84;;;18.80;49.15
60319;BME280;46163;52.306;5.634;2023-03-13T12:26:15;99137.69;;;18.80;48.96
60319;BME280;46163;52.306;5.634;2023-03-13T12:31:32;99129.91;;;18.79;49.14
60319;BME280;46163;52.306;5.634;2023-03-13T12:39:37;99141.88;;;18.73;49.22
60319;BME280;46163;52.306;5.634;2023-03-13T12:44:42;99141.69;;;18.69;49.25
60319;BME280;46163;52.306;5.634;2023-03-13T12:47:24;99139.47;;;18.71;49.10
60319;BME280;46163;52.306;5.634;2023-03-13T13:00:45;99099.06;;;18.71;48.94
60319;BME280;46163;52.306;5.634;2023-03-13T13:03:19;99092.88;;;18.71;48.78
60319;BME280;46163;52.306;5.634;2023-03-13T13:11:39;99086.75;;;18.65;48.83
60319;BME280;46163;52.306;5.634;2023-03-13T13:16:53;99076.03;;;18.79;48.56
60319;BME280;46163;52.306;5.634;2023-03-13T13:25:46;99081.06;;;18.67;48.36
60319;BME280;46163;52.306;5.634;2023-03-13T13:27:47;99106.84;;;18.73;48.63
60319;BME280;46163;52.306;5.634;2023-03-13T13:32:52;99095.06;;;18.69;48.71
60319;BME280;46163;52.306;5.634;2023-03-13T13:35:35;99090.75;;;18.68;48.71
60319;BME280;46163;52.306;5.634;2023-03-13T13:38:20;99075.91;;;18.70;48.64
60319;BME280;46163;52.306;5.634;2023-03-13T13:43:40;99075.00;;;18.75;48.25
60319;BME280;46163;52.306;5.634;2023-03-13T13:46:26;99075.22;;;18.78;48.47
60319;BME280;46163;52.306;5.634;2023-03-13T13:51:30;99080.19;;;18.85;48.26
60319;BME280;46163;52.306;5.634;2023-03-13T13:54:32;99059.66;;;18.89;48.37
60319;BME280;46163;52.306;5.634;2023-03-13T13:56:59;99063.94;;;18.90;47.92
60319;BME280;46163;52.306;5.634;2023-03-13T13:59:35;99117.25;;;18.93;47.81
60319;BME280;46163;52.306;5.634;2023-03-13T14:04:36;99096.41;;;18.99;47.80
60319;BME280;46163;52.306;5.634;2023-03-13T14:07:04;99078.94;;;18.96;47.67
60319;BME280;46163;52.306;5.634;2023-03-13T14:09:37;99063.44;;;19.02;47.79
60319;BME280;46163;52.306;5.634;2023-03-13T14:15:07;99099.00;;;19.04;47.67
60319;BME280;46163;52.306;5.634;2023-03-13T14:17:45;99104.91;;;19.06;47.59
60319;BME280;46163;52.306;5.634;2023-03-13T14:20:15;99058.75;;;19.07;47.56
60319;BME280;46163;52.306;5.634;2023-03-13T14:22:46;99087.31;;;19.08;47.56
60319;BME280;46163;52.306;5.634;2023-03-13T14:25:12;99081.03;;;19.13;47.40
60319;BME280;46163;52.306;5.634;2023-03-13T14:27:45;99076.94;;;19.15;47.43
60319;BME280;46163;52.306;5.634;2023-03-13T14:30:14;99072.53;;;19.19;47.41
60319;BME280;46163;52.306;5.634;2023-03-13T14:32:40;99070.34;;;19.22;47.23
60319;BME280;46163;52.306;5.634;2023-03-13T14:35:09;99063.25;;;19.26;47.09
60319;BME280;46163;52.306;5.634;2023-03-13T14:37:44;99065.06;;;19.30;47.07
60319;BME280;46163;52.306;5.634;2023-03-13T14:42:54;99012.41;;;19.19;47.12
60319;BME280;46163;52.306;5.634;2023-03-13T14:45:32;99044.16;;;19.36;47.07
60319;BME280;46163;52.306;5.634;2023-03-13T14:48:16;99036.88;;;19.36;46.56